Time;durP1;ratioP1;P1;durP2;ratioP2;P2;SDS_P1;SDS_P2;PMS_P1;PMS_P2;Temp;Humidity;BMP_temperature;BMP_pressure;BME280_temperature;BME280_humidity;BME280_pressure;Samples;Min_cycle;Max_cycle;Signal;HPM_P1;HPM_P2
2023/09/22 00:01:21;;;;;;;4.43;2.13;;;;;;;-148.88;100.00;-17125.47;5020783;28;20385;-85
2023/09/22 00:03:47;;;;;;;3.20;2.20;;;;;;;-148.88;100.00;-17125.47;5039233;28;20032;-85
2023/09/22 00:06:13;;;;;;;3.15;2.25;;;;;;;-148.88;100.00;-17125.47;5021611;28;20127;-85
2023/09/22 00:08:39;;;;;;;3.65;2.38;;;;;;;-148.88;100.00;-17125.47;5021246;28;20105;-85
2023/09/22 00:11:07;;;;;;;3.75;2.58;;;;;;;-148.88;100.00;-17125.47;5039221;28;20021;-86
2023/09/22 00:13:33;;;;;;;4.75;2.95;;;;;;;-148.88;100.00;-17125.47;5020657;28;20022;-85
2023/09/22 00:15:58;;;;;;;4.47;2.53;;;;;;;-148.88;100.00;-17125.47;5038638;28;20029;-84
2023/09/22 00:18:24;;;;;;;4.03;2.67;;;;;;;-148.88;100.00;-17125.47;5038825;28;20025;-86
2023/09/22 00:20:49;;;;;;;3.80;2.40;;;;;;;-148.88;100.00;-17125.47;5038868;28;20020;-85
2023/09/22 00:23:15;;;;;;;4.53;2.72;;;;;;;-148.88;100.00;-17125.47;5036767;28;20034;-85
2023/09/22 00:25:41;;;;;;;4.00;2.38;;;;;;;-148.88;100.00;-17125.47;5019681;28;20080;-85
2023/09/22 00:28:07;;;;;;;4.43;2.40;;;;;;;-148.88;100.00;-17125.47;5037442;28;20025;-85
2023/09/22 00:30:32;;;;;;;3.75;2.22;;;;;;;-148.88;100.00;-17125.47;5039054;28;20076;-85
2023/09/22 00:32:58;;;;;;;4.15;2.60;;;;;;;-148.88;100.00;-17125.47;5020709;28;20036;-86
2023/09/22 00:35:23;;;;;;;3.10;1.95;;;;;;;-148.88;100.00;-17125.47;5021738;28;20091;-86
2023/09/22 00:37:50;;;;;;;3.92;2.15;;;;;;;-148.88;100.00;-17125.47;5039887;28;20029;-85
2023/09/22 00:40:15;;;;;;;2.60;1.80;;;;;;;-148.88;100.00;-17125.47;5021646;28;20027;-85
2023/09/22 00:42:41;;;;;;;2.95;2.03;;;;;;;-148.88;100.00;-17125.47;5021031;28;20065;-86
2023/09/22 00:45:07;;;;;;;2.80;1.70;;;;;;;-148.88;100.00;-17125.47;5020446;28;20405;-85
2023/09/22 00:47:33;;;;;;;3.03;1.80;;;;;;;-148.88;100.00;-17125.47;5021412;28;20083;-85
2023/09/22 00:49:59;;;;;;;2.90;1.90;;;;;;;-148.88;100.00;-17125.47;5020082;28;20115;-86
2023/09/22 00:52:27;;;;;;;3.53;1.80;;;;;;;-148.88;100.00;-17125.47;5019514;28;20017;-86
2023/09/22 00:54:53;;;;;;;3.05;1.70;;;;;;;-148.88;100.00;-17125.47;5019331;28;20029;-85
2023/09/22 00:57:20;;;;;;;2.83;1.70;;;;;;;-148.88;100.00;-17125.47;5037684;28;20045;-86
2023/09/22 00:59:47;;;;;;;3.67;1.50;;;;;;;-148.88;100.00;-17125.47;5036623;28;20025;-85
2023/09/22 01:02:12;;;;;;;3.03;1.30;;;;;;;-148.88;100.00;-17125.47;5018762;28;20029;-86
2023/09/22 01:04:37;;;;;;;3.40;1.35;;;;;;;-148.88;100.00;-17125.47;5019161;28;20041;-86
2023/09/22 01:07:03;;;;;;;2.42;1.35;;;;;;;-148.88;100.00;-17125.47;5019458;28;20462;-85
2023/09/22 01:09:29;;;;;;;2.47;1.45;;;;;;;-148.88;100.00;-17125.47;5019006;28;20025;-85
2023/09/22 01:11:54;;;;;;;2.65;1.30;;;;;;;-148.88;100.00;-17125.47;5037139;28;20032;-85
2023/09/22 01:14:20;;;;;;;2.58;1.40;;;;;;;-148.88;100.00;-17125.47;5019757;28;20017;-85
2023/09/22 01:16:45;;;;;;;2.35;1.40;;;;;;;-148.88;100.00;-17125.47;5018920;28;20036;-85
2023/09/22 01:19:16;;;;;;;3.08;1.23;;;;;;;-148.88;100.00;-17125.47;5019719;28;20025;-85
2023/09/22 01:21:46;;;;;;;2.97;1.40;;;;;;;-148.88;100.00;-17125.47;5038032;28;20473;-85
2023/09/22 01:24:13;;;;;;;1.70;1.30;;;;;;;-148.88;100.00;-17125.47;5021288;28;20072;-85
2023/09/22 01:26:39;;;;;;;3.80;1.48;;;;;;;-148.88;100.00;-17125.47;5041121;28;20021;-86
2023/09/22 01:29:05;;;;;;;2.25;1.13;;;;;;;-148.88;100.00;-17125.47;5042104;28;20044;-86
2023/09/22 01:31:30;;;;;;;3.72;1.33;;;;;;;-148.88;100.00;-17125.47;5021437;28;20477;-86
2023/09/22 01:33:56;;;;;;;2.83;1.30;;;;;;;-148.88;100.00;-17125.47;5020579;28;20027;-86
2023/09/22 01:36:22;;;;;;;5.82;1.50;;;;;;;-148.88;100.00;-17125.47;5037153;28;20029;-86
2023/09/22 01:38:47;;;;;;;3.22;1.70;;;;;;;-148.88;100.00;-17125.47;5038804;28;20025;-86
2023/09/22 01:41:13;;;;;;;3.08;1.58;;;;;;;-148.88;100.00;-17125.47;5037962;28;20033;-86
2023/09/22 01:43:38;;;;;;;3.13;1.45;;;;;;;-148.88;100.00;-17125.47;5038484;28;20109;-86
2023/09/22 01:46:05;;;;;;;3.63;1.52;;;;;;;-148.88;100.00;-17125.47;5020385;28;20527;-86
2023/09/22 01:48:30;;;;;;;3.13;1.70;;;;;;;-148.88;100.00;-17125.47;5038262;28;20029;-85
2023/09/22 01:51:02;;;;;;;2.13;1.15;;;;;;;-148.88;100.00;-17125.47;5020342;28;20074;-86
2023/09/22 01:53:28;;;;;;;2.40;1.30;;;;;;;-148.88;100.00;-17125.47;5019731;28;20022;-86
2023/09/22 01:55:54;;;;;;;2.63;1.10;;;;;;;-148.88;100.00;-17125.47;5018575;28;20029;-86
2023/09/22 01:58:20;;;;;;;2.95;1.30;;;;;;;-148.88;100.00;-17125.47;5036643;28;20163;-86
2023/09/22 02:00:45;;;;;;;2.10;1.35;;;;;;;-148.88;100.00;-17125.47;5018107;28;20021;-86
2023/09/22 02:03:11;;;;;;;2.30;1.30;;;;;;;-148.88;100.00;-17125.47;5017895;28;20409;-86
2023/09/22 02:05:36;;;;;;;4.72;1.33;;;;;;;-148.88;100.00;-17125.47;5036224;28;20028;-86
2023/09/22 02:08:02;;;;;;;3.35;1.75;;;;;;;-148.88;100.00;-17125.47;5018584;28;20065;-86
2023/09/22 02:10:27;;;;;;;2.78;1.48;;;;;;;-148.88;100.00;-17125.47;5018041;28;20480;-86
2023/09/22 02:12:53;;;;;;;3.28;1.50;;;;;;;-148.88;100.00;-17125.47;5034759;28;20025;-86
2023/09/22 02:15:18;;;;;;;2.63;1.40;;;;;;;-148.88;100.00;-17125.47;5016628;28;20091;-85
2023/09/22 02:17:46;;;;;;;2.58;1.23;;;;;;;-148.88;100.00;-17125.47;5036238;28;20060;-86
2023/09/22 02:20:18;;;;;;;3.88;1.60;;;;;;;-148.88;100.00;-17125.47;5018126;28;20021;-86
2023/09/22 02:22:47;;;;;;;3.08;1.88;;;;;;;-148.88;100.00;-17125.47;5018416;28;20049;-86
2023/09/22 02:25:19;;;;;;;3.70;1.77;;;;;;;-148.88;100.00;-17125.47;5035510;28;20120;-86
2023/09/22 02:27:47;;;;;;;3.17;1.90;;;;;;;-148.88;100.00;-17125.47;5035762;28;20025;-86
2023/09/22 02:30:14;;;;;;;3.33;2.00;;;;;;;-148.88;100.00;-17125.47;5017283;28;20124;-86
2023/09/22 02:32:41;;;;;;;5.47;1.98;;;;;;;-148.88;100.00;-17125.47;5018905;28;20393;-86
2023/09/22 02:35:08;;;;;;;4.00;2.60;;;;;;;-148.88;100.00;-17125.47;5016506;28;20032;-86
2023/09/22 02:37:33;;;;;;;4.03;2.63;;;;;;;-148.88;100.00;-17125.47;5017216;28;20022;-87
2023/09/22 02:39:59;;;;;;;4.20;2.13;;;;;;;-148.88;100.00;-17125.47;5034654;28;20032;-86
2023/09/22 02:42:24;;;;;;;3.78;2.50;;;;;;;-148.88;100.00;-17125.47;5034731;28;20037;-86
2023/09/22 02:44:50;;;;;;;4.53;2.47;;;;;;;-148.88;100.00;-17125.47;5033528;28;20504;-87
2023/09/22 02:47:15;;;;;;;3.35;2.15;;;;;;;-148.88;100.00;-17125.47;5016587;28;20025;-86
2023/09/22 02:49:41;;;;;;;4.10;2.58;;;;;;;-148.88;100.00;-17125.47;5016391;28;20156;-86
2023/09/22 02:52:07;;;;;;;4.13;2.30;;;;;;;-148.88;100.00;-17125.47;5016131;28;20167;-85
2023/09/22 02:54:32;;;;;;;4.57;2.60;;;;;;;-148.88;100.00;-17125.47;5033138;28;20044;-86
2023/09/22 02:56:57;;;;;;;4.72;2.60;;;;;;;-148.88;100.00;-17125.47;5034131;28;20456;-86
2023/09/22 02:59:23;;;;;;;3.65;2.67;;;;;;;-148.88;100.00;-17125.47;5035281;28;20036;-86
2023/09/22 03:01:49;;;;;;;5.68;2.65;;;;;;;-148.88;100.00;-17125.47;5034786;28;20490;-86
2023/09/22 03:04:15;;;;;;;4.63;2.50;;;;;;;-148.88;100.00;-17125.47;5017310;28;20053;-86
2023/09/22 03:06:40;;;;;;;3.95;2.47;;;;;;;-148.88;100.00;-17125.47;5016405;28;20539;-87
2023/09/22 03:09:09;;;;;;;4.32;3.00;;;;;;;-148.88;100.00;-17125.47;5017388;28;20029;-86
2023/09/22 03:11:35;;;;;;;6.20;4.20;;;;;;;-148.88;100.00;-17125.47;5016955;28;20045;-86
2023/09/22 03:14:00;;;;;;;5.70;4.50;;;;;;;-148.88;100.00;-17125.47;5034298;28;20029;-87
2023/09/22 03:16:29;;;;;;;6.35;4.47;;;;;;;-148.88;100.00;-17125.47;5016852;28;20075;-86
2023/09/22 03:18:55;;;;;;;6.32;5.10;;;;;;;-148.88;100.00;-17125.47;5016935;28;20029;-86
2023/09/22 03:21:22;;;;;;;7.80;6.70;;;;;;;-148.88;100.00;-17125.47;5016290;28;20496;-87
2023/09/22 03:23:52;;;;;;;8.55;6.70;;;;;;;-148.88;100.00;-17125.47;5016136;28;20512;-86
2023/09/22 03:26:18;;;;;;;8.88;7.03;;;;;;;-148.88;100.00;-17125.47;5016218;28;20512;-87
2023/09/22 03:28:47;;;;;;;7.97;6.90;;;;;;;-148.88;100.00;-17125.47;5034209;28;20108;-85
2023/09/22 03:31:13;;;;;;;8.07;6.93;;;;;;;-148.88;100.00;-17125.47;5015861;28;20031;-86
2023/09/22 03:33:41;;;;;;;8.38;7.45;;;;;;;-148.88;100.00;-17125.47;5016267;28;20021;-86
2023/09/22 03:36:12;;;;;;;9.18;7.00;;;;;;;-148.88;100.00;-17125.47;5015974;28;20060;-86
2023/09/22 03:38:41;;;;;;;9.38;8.23;;;;;;;-148.88;100.00;-17125.47;5017058;28;20452;-85
2023/09/22 03:41:06;;;;;;;10.38;8.07;;;;;;;-148.88;100.00;-17125.47;5016215;28;20396;-86
2023/09/22 03:43:33;;;;;;;10.23;7.65;;;;;;;-148.88;100.00;-17125.47;5016663;28;20116;-86
2023/09/22 03:45:58;;;;;;;10.38;8.35;;;;;;;-148.88;100.00;-17125.47;5016132;28;20030;-86
2023/09/22 03:48:24;;;;;;;9.68;8.68;;;;;;;-148.88;100.00;-17125.47;5015801;28;20026;-86
2023/09/22 03:50:49;;;;;;;10.95;8.82;;;;;;;-148.88;100.00;-17125.47;5015633;28;20039;-86
2023/09/22 03:53:15;;;;;;;9.73;8.38;;;;;;;-148.88;100.00;-17125.47;5015838;28;20033;-86
2023/09/22 03:55:40;;;;;;;8.95;8.05;;;;;;;-148.88;100.00;-17125.47;5034009;28;20029;-86
2023/09/22 03:58:06;;;;;;;8.65;7.68;;;;;;;-148.88;100.00;-17125.47;5019011;28;20022;-86
2023/09/22 04:00:31;;;;;;;7.75;6.80;;;;;;;-148.88;100.00;-17125.47;5019321;28;20414;-86
2023/09/22 04:02:56;;;;;;;7.93;6.93;;;;;;;-148.88;100.00;-17125.47;5037675;28;20026;-85
2023/09/22 04:05:22;;;;;;;7.43;6.63;;;;;;;-148.88;100.00;-17125.47;5019138;28;20052;-87
2023/09/22 04:07:48;;;;;;;10.90;8.15;;;;;;;-148.88;100.00;-17125.47;5019004;28;20099;-86
2023/09/22 04:10:15;;;;;;;9.02;6.65;;;;;;;-148.88;100.00;-17125.47;5019047;28;20029;-85
2023/09/22 04:12:40;;;;;;;9.32;7.45;;;;;;;-148.88;100.00;-17125.47;5018916;28;20036;-86
2023/09/22 04:15:08;;;;;;;8.75;7.95;;;;;;;-148.88;100.00;-17125.47;5019487;28;20021;-86
2023/09/22 04:17:34;;;;;;;9.25;7.72;;;;;;;-148.88;100.00;-17125.47;5019264;28;20115;-86
2023/09/22 04:20:01;;;;;;;9.48;8.40;;;;;;;-148.88;100.00;-17125.47;5018778;28;20025;-86
2023/09/22 04:22:30;;;;;;;8.73;7.82;;;;;;;-148.88;100.00;-17125.47;5018547;28;20021;-86
2023/09/22 04:25:07;;;;;;;10.80;8.30;;;;;;;-148.88;100.00;-17125.47;5019850;28;20056;-85
2023/09/22 04:27:32;;;;;;;11.95;9.45;;;;;;;-148.88;100.00;-17125.47;5019276;28;20025;-86
2023/09/22 04:30:03;;;;;;;11.55;9.25;;;;;;;-148.88;100.00;-17125.47;5019646;28;20021;-85
2023/09/22 04:32:33;;;;;;;11.38;8.80;;;;;;;-148.88;100.00;-17125.47;5019611;28;20504;-86
2023/09/22 04:34:59;;;;;;;11.77;10.43;;;;;;;-148.88;100.00;-17125.47;5020003;28;20040;-86
2023/09/22 04:37:24;;;;;;;11.20;9.50;;;;;;;-148.88;100.00;-17125.47;5037105;28;20032;-86
2023/09/22 04:39:50;;;;;;;12.02;9.90;;;;;;;-148.88;100.00;-17125.47;5020280;28;20052;-86
2023/09/22 04:42:15;;;;;;;12.77;10.52;;;;;;;-148.88;100.00;-17125.47;5021221;28;20040;-85
2023/09/22 04:44:40;;;;;;;12.45;10.05;;;;;;;-148.88;100.00;-17125.47;5022451;28;20021;-86
2023/09/22 04:47:06;;;;;;;12.57;9.48;;;;;;;-148.88;100.00;-17125.47;5018059;28;20103;-88
2023/09/22 04:49:31;;;;;;;11.85;8.73;;;;;;;-148.88;100.00;-17125.47;5019338;28;20111;-86
2023/09/22 04:51:57;;;;;;;10.13;8.20;;;;;;;-148.88;100.00;-17125.47;5036218;28;20120;-86
2023/09/22 04:54:22;;;;;;;9.68;7.30;;;;;;;-148.88;100.00;-17125.47;5036139;28;20028;-86
2023/09/22 04:56:48;;;;;;;10.02;6.97;;;;;;;-148.88;100.00;-17125.47;5036346;28;20112;-87
2023/09/22 04:59:15;;;;;;;9.48;6.65;;;;;;;-148.88;100.00;-17125.47;5018997;28;20060;-86
2023/09/22 05:01:41;;;;;;;11.20;7.78;;;;;;;-148.88;100.00;-17125.47;5018172;28;20029;-86
2023/09/22 05:04:06;;;;;;;8.15;6.63;;;;;;;-148.88;100.00;-17125.47;5036070;28;20108;-84
2023/09/22 05:06:32;;;;;;;9.50;6.38;;;;;;;-148.88;100.00;-17125.47;5035549;28;20029;-86
2023/09/22 05:08:57;;;;;;;9.52;6.35;;;;;;;-148.88;100.00;-17125.47;5035442;28;20068;-86
2023/09/22 05:11:22;;;;;;;9.20;6.32;;;;;;;-148.88;100.00;-17125.47;5018681;28;20021;-86
2023/09/22 05:13:49;;;;;;;8.10;6.30;;;;;;;-148.88;100.00;-17125.47;5018053;28;20021;-86
2023/09/22 05:16:14;;;;;;;8.18;5.72;;;;;;;-148.88;100.00;-17125.47;5017415;28;20061;-86
2023/09/22 05:18:40;;;;;;;8.73;6.65;;;;;;;-148.88;100.00;-17125.47;5036868;28;20060;-86
2023/09/22 05:21:09;;;;;;;11.23;6.50;;;;;;;-148.88;100.00;-17125.47;5018540;28;20079;-86
2023/09/22 05:23:35;;;;;;;9.15;6.43;;;;;;;-148.88;100.00;-17125.47;5017616;28;20032;-88
2023/09/22 05:26:06;;;;;;;7.97;5.85;;;;;;;-148.88;100.00;-17125.47;5017964;28;20097;-87
2023/09/22 05:28:32;;;;;;;8.07;6.47;;;;;;;-148.88;100.00;-17125.47;5018729;28;20029;-87
2023/09/22 05:30:58;;;;;;;9.07;6.72;;;;;;;-148.88;100.00;-17125.47;5018120;28;20489;-87
2023/09/22 05:33:24;;;;;;;11.45;6.95;;;;;;;-148.88;100.00;-17125.47;5035640;28;20088;-88
2023/09/22 05:35:49;;;;;;;8.50;6.53;;;;;;;-148.88;100.00;-17125.47;5017574;28;20022;-88
2023/09/22 05:38:15;;;;;;;10.43;6.35;;;;;;;-148.88;100.00;-17125.47;5017405;28;20032;-87
2023/09/22 05:40:43;;;;;;;11.55;6.32;;;;;;;-148.88;100.00;-17125.47;5017311;28;20454;-87
2023/09/22 05:43:14;;;;;;;9.90;6.28;;;;;;;-148.88;100.00;-17125.47;5035299;28;20076;-86
2023/09/22 05:45:40;;;;;;;10.07;6.32;;;;;;;-148.88;100.00;-17125.47;5017659;28;20021;-88
2023/09/22 05:48:07;;;;;;;12.18;6.15;;;;;;;-148.88;100.00;-17125.47;5017465;28;20112;-88
2023/09/22 05:50:35;;;;;;;10.23;7.03;;;;;;;-148.88;100.00;-17125.47;5017370;28;20094;-88
2023/09/22 05:53:00;;;;;;;7.68;5.97;;;;;;;-148.88;100.00;-17125.47;5017278;28;20508;-85
2023/09/22 05:55:27;;;;;;;11.18;6.70;;;;;;;-148.88;100.00;-17125.47;5034885;28;20029;-86
2023/09/22 05:57:53;;;;;;;8.60;6.03;;;;;;;-148.88;100.00;-17125.47;5016841;28;20493;-87
2023/09/22 06:00:18;;;;;;;9.73;6.20;;;;;;;-148.88;100.00;-17125.47;5034923;28;20131;-86
2023/09/22 06:02:49;;;;;;;10.75;6.63;;;;;;;-148.88;100.00;-17125.47;5016793;28;20100;-86
2023/09/22 06:05:15;;;;;;;8.23;6.57;;;;;;;-148.88;100.00;-17125.47;5017034;28;20375;-86
2023/09/22 06:07:41;;;;;;;10.20;6.32;;;;;;;-148.88;100.00;-17125.47;5016761;28;20055;-86
2023/09/22 06:10:09;;;;;;;9.63;6.50;;;;;;;-148.88;100.00;-17125.47;5035228;28;20123;-86
2023/09/22 06:12:35;;;;;;;7.57;5.53;;;;;;;-148.88;100.00;-17125.47;5017162;28;20027;-88
2023/09/22 06:15:02;;;;;;;8.55;5.85;;;;;;;-148.88;100.00;-17125.47;5017389;28;20060;-89
2023/09/22 06:17:27;;;;;;;8.85;5.65;;;;;;;-148.88;100.00;-17125.47;5035026;28;20025;-88
2023/09/22 06:19:53;;;;;;;7.28;5.10;;;;;;;-148.88;100.00;-17125.47;5017230;28;20022;-87
2023/09/22 06:22:18;;;;;;;7.88;4.40;;;;;;;-148.88;100.00;-17125.47;5034347;28;20021;-87
2023/09/22 06:24:43;;;;;;;7.80;4.57;;;;;;;-148.88;100.00;-17125.47;5017232;28;20049;-87
2023/09/22 06:27:09;;;;;;;7.47;4.10;;;;;;;-148.88;100.00;-17125.47;5016913;28;20489;-88
2023/09/22 06:29:34;;;;;;;7.32;4.07;;;;;;;-148.88;100.00;-17125.47;5034789;28;20474;-85
2023/09/22 06:31:59;;;;;;;9.63;4.20;;;;;;;-148.88;100.00;-17125.47;5034287;28;20044;-84
2023/09/22 06:34:25;;;;;;;8.60;3.67;;;;;;;-148.88;100.00;-17125.47;5017044;28;20393;-86
2023/09/22 06:36:50;;;;;;;11.15;3.90;;;;;;;-148.88;100.00;-17125.47;5016735;28;20041;-86
2023/09/22 06:39:16;;;;;;;8.63;3.60;;;;;;;-148.88;100.00;-17125.47;5016525;28;20041;-87
2023/09/22 06:41:42;;;;;;;6.68;3.80;;;;;;;-148.88;100.00;-17125.47;5016596;28;20548;-87
2023/09/22 06:44:07;;;;;;;6.32;3.70;;;;;;;-148.88;100.00;-17125.47;5016690;28;20045;-85
2023/09/22 06:46:35;;;;;;;4.40;3.20;;;;;;;-148.88;100.00;-17125.47;5017295;28;20473;-85
2023/09/22 06:49:05;;;;;;;5.22;3.28;;;;;;;-148.88;100.00;-17125.47;5016761;28;20029;-86
2023/09/22 06:51:31;;;;;;;7.53;3.80;;;;;;;-148.88;100.00;-17125.47;5016595;28;20022;-85
2023/09/22 06:53:57;;;;;;;6.15;3.50;;;;;;;-148.88;100.00;-17125.47;5034292;28;20478;-85
2023/09/22 06:56:22;;;;;;;7.35;3.65;;;;;;;-148.88;100.00;-17125.47;5034355;28;20033;-85
2023/09/22 06:58:49;;;;;;;5.30;3.67;;;;;;;-148.88;100.00;-17125.47;5016552;28;20029;-88
2023/09/22 07:01:15;;;;;;;6.10;3.72;;;;;;;-148.88;100.00;-17125.47;5016616;28;20393;-85
2023/09/22 07:03:42;;;;;;;6.43;3.47;;;;;;;-148.88;100.00;-17125.47;5018599;28;20032;-85
2023/09/22 07:06:10;;;;;;;6.35;3.65;;;;;;;-148.88;100.00;-17125.47;5036216;28;20022;-85
2023/09/22 07:08:36;;;;;;;6.60;3.80;;;;;;;-148.88;100.00;-17125.47;5036285;28;20025;-85
2023/09/22 07:11:08;;;;;;;5.45;3.40;;;;;;;-148.88;100.00;-17125.47;5036990;28;20022;-85
2023/09/22 07:13:33;;;;;;;5.07;3.20;;;;;;;-148.88;100.00;-17125.47;5017424;28;20049;-88
2023/09/22 07:15:59;;;;;;;5.45;3.38;;;;;;;-148.88;100.00;-17125.47;5016030;28;20026;-85
2023/09/22 07:18:25;;;;;;;6.13;2.95;;;;;;;-148.88;100.00;-17125.47;5016027;28;20025;-86
2023/09/22 07:20:51;;;;;;;5.50;2.72;;;;;;;-148.88;100.00;-17125.47;5016486;28;20022;-86
2023/09/22 07:23:17;;;;;;;6.03;3.35;;;;;;;-148.88;100.00;-17125.47;5034292;28;20033;-85
2023/09/22 07:25:42;;;;;;;4.55;3.10;;;;;;;-148.88;100.00;-17125.47;5016628;28;20025;-86
2023/09/22 07:28:08;;;;;;;5.68;3.03;;;;;;;-148.88;100.00;-17125.47;5016266;28;20030;-86
2023/09/22 07:30:34;;;;;;;4.32;2.80;;;;;;;-148.88;100.00;-17125.47;5017365;28;20051;-87
2023/09/22 07:33:00;;;;;;;5.57;2.88;;;;;;;-148.88;100.00;-17125.47;5037242;28;20519;-86
2023/09/22 07:35:26;;;;;;;5.07;2.20;;;;;;;-148.88;100.00;-17125.47;5019813;28;20025;-86
2023/09/22 07:37:52;;;;;;;5.07;2.30;;;;;;;-148.88;100.00;-17125.47;5019703;28;20108;-86
2023/09/22 07:40:17;;;;;;;4.93;2.30;;;;;;;-148.88;100.00;-17125.47;5022180;28;20121;-85
2023/09/22 07:42:44;;;;;;;4.00;2.30;;;;;;;-148.88;100.00;-17125.47;5038906;28;20021;-85
2023/09/22 07:45:10;;;;;;;5.53;2.42;;;;;;;-148.88;100.00;-17125.47;5020517;28;20028;-86
2023/09/22 07:47:37;;;;;;;3.95;2.25;;;;;;;-148.88;100.00;-17125.47;5019988;28;20401;-86
2023/09/22 07:50:06;;;;;;;4.63;2.17;;;;;;;-148.88;100.00;-17125.47;5020019;28;20029;-85
2023/09/22 07:52:32;;;;;;;3.65;1.83;;;;;;;-148.88;100.00;-17125.47;5019738;28;20389;-86
2023/09/22 07:54:59;;;;;;;6.88;1.98;;;;;;;-148.88;100.00;-17125.47;5037849;28;20068;-85
2023/09/22 07:57:25;;;;;;;4.32;2.00;;;;;;;-148.88;100.00;-17125.47;5019822;28;20018;-86
2023/09/22 07:59:50;;;;;;;3.92;1.90;;;;;;;-148.88;100.00;-17125.47;5020439;28;20024;-85
2023/09/22 08:02:17;;;;;;;3.67;1.70;;;;;;;-148.88;100.00;-17125.47;5037481;28;20053;-86
2023/09/22 08:04:43;;;;;;;5.15;1.90;;;;;;;-148.88;100.00;-17125.47;5019860;28;20456;-86
2023/09/22 08:07:08;;;;;;;4.60;1.70;;;;;;;-148.88;100.00;-17125.47;5019667;28;20584;-86
2023/09/22 08:09:33;;;;;;;4.82;1.80;;;;;;;-148.88;100.00;-17125.47;5018987;28;20062;-84
2023/09/22 08:11:59;;;;;;;4.53;1.70;;;;;;;-148.88;100.00;-17125.47;5019382;28;20366;-85
2023/09/22 08:14:25;;;;;;;4.05;1.75;;;;;;;-148.88;100.00;-17125.47;5036381;28;20026;-87
2023/09/22 08:16:50;;;;;;;2.90;1.60;;;;;;;-148.88;100.00;-17125.47;5018803;28;20505;-87
2023/09/22 08:19:16;;;;;;;4.65;1.38;;;;;;;-148.88;100.00;-17125.47;5018590;28;20021;-87
2023/09/22 08:21:41;;;;;;;4.10;1.45;;;;;;;-148.88;100.00;-17125.47;5018537;28;20018;-87
2023/09/22 08:24:11;;;;;;;3.28;1.70;;;;;;;-148.88;100.00;-17125.47;5018602;28;20092;-86
2023/09/22 08:26:36;;;;;;;3.38;1.67;;;;;;;-148.88;100.00;-17125.47;5036572;28;20091;-86
2023/09/22 08:29:04;;;;;;;3.75;1.40;;;;;;;-148.88;100.00;-17125.47;5036510;28;20033;-87
2023/09/22 08:31:30;;;;;;;2.95;1.20;;;;;;;-148.88;100.00;-17125.47;5019578;28;20412;-86
2023/09/22 08:33:55;;;;;;;5.45;1.77;;;;;;;-148.88;100.00;-17125.47;5036905;28;20466;-86
2023/09/22 08:36:20;;;;;;;4.35;1.67;;;;;;;-148.88;100.00;-17125.47;5036184;28;20021;-86
2023/09/22 08:38:51;;;;;;;3.22;1.65;;;;;;;-148.88;100.00;-17125.47;5036345;28;20025;-86
2023/09/22 08:41:17;;;;;;;3.95;1.80;;;;;;;-148.88;100.00;-17125.47;5018382;28;20033;-86
2023/09/22 08:43:45;;;;;;;2.58;1.55;;;;;;;-148.88;100.00;-17125.47;5017093;28;20395;-86
2023/09/22 08:46:11;;;;;;;4.43;1.60;;;;;;;-148.88;100.00;-17125.47;5036025;28;20025;-86
2023/09/22 08:48:36;;;;;;;5.32;1.50;;;;;;;-148.88;100.00;-17125.47;5018639;28;20021;-86
2023/09/22 08:51:04;;;;;;;3.70;1.63;;;;;;;-148.88;100.00;-17125.47;5036319;28;20017;-87
2023/09/22 08:53:32;;;;;;;2.97;1.20;;;;;;;-148.88;100.00;-17125.47;5018373;28;20033;-86
2023/09/22 08:55:58;;;;;;;3.28;1.50;;;;;;;-148.88;100.00;-17125.47;5019243;28;20025;-86
2023/09/22 08:58:23;;;;;;;11.43;1.90;;;;;;;-148.88;100.00;-17125.47;5018535;28;20079;-86
2023/09/22 09:00:51;;;;;;;3.55;1.10;;;;;;;-148.88;100.00;-17125.47;5018573;28;20041;-88
2023/09/22 09:03:20;;;;;;;3.88;1.50;;;;;;;-148.88;100.00;-17125.47;5017961;28;20029;-87
2023/09/22 09:05:46;;;;;;;4.15;1.38;;;;;;;-148.88;100.00;-17125.47;5018217;28;20026;-87
2023/09/22 09:08:23;;;;;;;3.75;1.50;;;;;;;-148.88;100.00;-17125.47;5018039;28;20048;-87
2023/09/22 09:10:49;;;;;;;4.72;1.70;;;;;;;-148.88;100.00;-17125.47;5035945;28;20060;-87
2023/09/22 09:13:17;;;;;;;3.10;1.27;;;;;;;-148.88;100.00;-17125.47;5035723;28;20108;-89
2023/09/22 09:15:45;;;;;;;2.70;1.30;;;;;;;-148.88;100.00;-17125.47;5035319;28;20524;-90
2023/09/22 09:18:13;;;;;;;2.92;1.30;;;;;;;-148.88;100.00;-17125.47;5017542;28;20029;-89
2023/09/22 09:20:40;;;;;;;3.17;1.13;;;;;;;-148.88;100.00;-17125.47;5017740;28;20111;-89
2023/09/22 09:23:15;;;;;;;2.22;1.05;;;;;;;-148.88;100.00;-17125.47;5018168;28;20021;-91
2023/09/22 09:25:45;;;;;;;3.15;1.30;;;;;;;-148.88;100.00;-17125.47;5017812;28;20490;-89
2023/09/22 09:28:12;;;;;;;2.97;1.10;;;;;;;-148.88;100.00;-17125.47;5018215;28;20064;-88
2023/09/22 09:30:38;;;;;;;3.95;1.10;;;;;;;-148.88;100.00;-17125.47;5017796;28;20118;-88
2023/09/22 09:33:10;;;;;;;2.78;1.13;;;;;;;-148.88;100.00;-17125.47;5035267;28;20021;-89
2023/09/22 09:35:37;;;;;;;2.25;1.02;;;;;;;-148.88;100.00;-17125.47;5017676;28;20082;-88
2023/09/22 09:38:19;;;;;;;4.05;1.25;;;;;;;-148.88;100.00;-17125.47;5017436;28;20087;-90
2023/09/22 09:40:45;;;;;;;2.78;1.10;;;;;;;-148.88;100.00;-17125.47;5017796;28;20021;-88
2023/09/22 09:43:14;;;;;;;3.33;1.30;;;;;;;-148.88;100.00;-17125.47;5035271;28;20393;-87
2023/09/22 09:45:48;;;;;;;2.78;1.20;;;;;;;-148.88;99.86;-17125.47;5035337;28;20030;-86
2023/09/22 09:48:16;;;;;;;;;;;;;;;-148.88;97.98;-17125.47;5017716;28;20035;-86
2023/09/22 09:50:53;;;;;;;5.20;1.17;;;;;;;-148.88;99.48;-17125.47;5035028;28;19916;-87
2023/09/22 09:53:42;;;;;;;2.38;1.00;;;;;;;-148.88;96.42;-17125.47;5017419;28;20544;-88
2023/09/22 09:56:07;;;;;;;4.03;1.10;;;;;;;-148.88;96.37;-17125.47;5035233;28;20032;-89
2023/09/22 09:58:35;;;;;;;1.98;1.02;;;;;;;-148.88;94.02;-17125.47;5017378;28;20026;-85
2023/09/22 10:01:05;;;;;;;4.07;0.90;;;;;;;-148.88;94.20;-17125.47;5035518;28;20453;-86
2023/09/22 10:03:30;;;;;;;3.88;1.10;;;;;;;-148.88;93.94;-17125.47;5018159;28;20026;-86
2023/09/22 10:05:57;;;;;;;2.95;0.93;;;;;;;-148.88;92.75;-17125.47;5018837;28;20025;-85
2023/09/22 10:08:25;;;;;;;1.40;0.85;;;;;;;-148.88;93.63;-17125.47;5038112;28;20124;-85
2023/09/22 10:11:03;;;;;;;3.17;0.90;;;;;;;-148.88;93.44;-17125.47;5017497;28;20026;-88
2023/09/22 10:13:29;;;;;;;2.35;0.98;;;;;;;-148.88;93.19;-17125.47;5017302;28;20029;-85
2023/09/22 10:16:05;;;;;;;4.50;0.90;;;;;;;-148.88;92.58;-17125.47;5017815;28;20087;-87
2023/09/22 10:18:50;;;;;;;3.33;1.13;;;;;;;-148.88;89.51;-17125.47;5034764;28;20079;-90
2023/09/22 10:21:31;;;;;;;4.78;1.00;;;;;;;-148.88;91.59;-17125.47;5034315;28;20032;-90
2023/09/22 10:24:19;;;;;;;2.70;0.80;;;;;;;-148.88;90.48;-17125.47;5034389;28;20490;-90
2023/09/22 10:26:57;;;;;;;2.80;0.90;;;;;;;-148.88;88.23;-17125.47;5016993;28;20401;-88
2023/09/22 10:29:37;;;;;;;1.65;0.73;;;;;;;-148.88;90.83;-17125.47;5034107;28;20025;-90
2023/09/22 10:35:09;;;;;;;2.22;1.02;;;;;;;-148.88;91.90;-17125.47;5034546;28;20436;-88
2023/09/22 10:37:35;;;;;;;3.25;0.80;;;;;;;-148.88;94.55;-17125.47;5017265;28;20028;-89
2023/09/22 10:40:16;;;;;;;3.67;0.90;;;;;;;-148.88;96.06;-17125.47;5017337;28;20169;-88
2023/09/22 10:42:42;;;;;;;3.15;1.00;;;;;;;-148.88;95.91;-17125.47;5016130;28;20024;-88
2023/09/22 10:45:10;;;;;;;2.63;0.90;;;;;;;-148.88;95.90;-17125.47;5017021;28;20057;-88
2023/09/22 10:47:40;;;;;;;2.17;0.90;;;;;;;-148.88;96.72;-17125.47;5016400;28;20049;-88
2023/09/22 10:50:12;;;;;;;2.05;1.00;;;;;;;-148.88;97.61;-17125.47;5016567;28;20026;-88
2023/09/22 10:52:37;;;;;;;2.92;1.10;;;;;;;-148.88;96.94;-17125.47;5017565;28;20079;-87
2023/09/22 10:55:05;;;;;;;3.53;1.08;;;;;;;-148.88;96.65;-17125.47;5034225;28;20025;-87
2023/09/22 10:57:39;;;;;;;2.35;0.98;;;;;;;-148.88;96.52;-17125.47;5016370;28;20022;-90
2023/09/22 11:00:12;;;;;;;3.88;1.00;;;;;;;-148.88;92.01;-17125.47;5035125;28;20500;-91
2023/09/22 11:02:38;;;;;;;2.50;0.90;;;;;;;-148.88;92.74;-17125.47;5017182;28;20044;-91
2023/09/22 11:05:05;;;;;;;2.08;1.10;;;;;;;-148.88;92.68;-17125.47;5016656;28;20398;-88